sensor_id;sensor_type;location;lat;lon;timestamp;P1;durP1;ratioP1;P2;durP2;ratioP2
7657;SDS011;8462;53.156;8.220;2023-02-04T00:00:01;11.60;;;2.40;;
7657;SDS011;8462;53.156;8.220;2023-02-04T00:02:31;8.67;;;2.07;;
7657;SDS011;8462;53.156;8.220;2023-02-04T00:04:58;4.40;;;1.40;;
7657;SDS011;8462;53.156;8.220;2023-02-04T00:07:25;10.37;;;2.03;;
7657;SDS011;8462;53.156;8.220;2023-02-04T00:09:52;4.60;;;1.53;;
7657;SDS011;8462;53.156;8.220;2023-02-04T00:12:20;8.50;;;2.03;;
7657;SDS011;8462;53.156;8.220;2023-02-04T00:14:47;8.33;;;1.77;;
7657;SDS011;8462;53.156;8.220;2023-02-04T00:17:14;10.43;;;1.63;;
7657;SDS011;8462;53.156;8.220;2023-02-04T00:19:41;6.87;;;2.07;;
7657;SDS011;8462;53.156;8.220;2023-02-04T00:22:08;6.23;;;2.10;;
7657;SDS011;8462;53.156;8.220;2023-02-04T00:24:35;4.67;;;1.50;;
7657;SDS011;8462;53.156;8.220;2023-02-04T00:27:03;12.03;;;2.03;;
7657;SDS011;8462;53.156;8.220;2023-02-04T00:29:32;5.67;;;2.20;;
7657;SDS011;8462;53.156;8.220;2023-02-04T00:31:59;3.90;;;1.40;;
7657;SDS011;8462;53.156;8.220;2023-02-04T00:34:26;5.73;;;1.43;;
7657;SDS011;8462;53.156;8.220;2023-02-04T00:36:53;2.17;;;1.47;;
7657;SDS011;8462;53.156;8.220;2023-02-04T00:39:20;3.90;;;1.07;;
7657;SDS011;8462;53.156;8.220;2023-02-04T00:41:47;5.37;;;1.53;;
7657;SDS011;8462;53.156;8.220;2023-02-04T00:44:14;5.23;;;1.90;;
7657;SDS011;8462;53.156;8.220;2023-02-04T00:46:42;9.07;;;1.73;;
7657;SDS011;8462;53.156;8.220;2023-02-04T00:49:09;8.33;;;1.43;;
7657;SDS011;8462;53.156;8.220;2023-02-04T00:51:37;6.07;;;1.33;;
7657;SDS011;8462;53.156;8.220;2023-02-04T00:54:04;9.33;;;1.57;;
7657;SDS011;8462;53.156;8.220;2023-02-04T00:56:32;10.50;;;1.80;;
7657;SDS011;8462;53.156;8.220;2023-02-04T00:58:59;7.37;;;1.47;;
7657;SDS011;8462;53.156;8.220;2023-02-04T01:01:26;4.67;;;1.60;;
7657;SDS011;8462;53.156;8.220;2023-02-04T01:03:54;3.53;;;1.47;;
7657;SDS011;8462;53.156;8.220;2023-02-04T01:06:23;5.63;;;1.27;;
7657;SDS011;8462;53.156;8.220;2023-02-04T01:08:50;4.30;;;1.20;;
7657;SDS011;8462;53.156;8.220;2023-02-04T01:11:17;7.10;;;1.70;;
7657;SDS011;8462;53.156;8.220;2023-02-04T01:13:44;4.77;;;1.40;;
7657;SDS011;8462;53.156;8.220;2023-02-04T01:16:12;2.67;;;1.30;;
7657;SDS011;8462;53.156;8.220;2023-02-04T01:18:39;4.40;;;1.40;;
7657;SDS011;8462;53.156;8.220;2023-02-04T01:21:07;3.57;;;1.87;;
7657;SDS011;8462;53.156;8.220;2023-02-04T01:23:34;6.70;;;1.57;;
7657;SDS011;8462;53.156;8.220;2023-02-04T01:26:02;8.53;;;1.67;;
7657;SDS011;8462;53.156;8.220;2023-02-04T01:28:30;4.63;;;1.30;;
7657;SDS011;8462;53.156;8.220;2023-02-04T01:30:57;5.50;;;1.33;;
7657;SDS011;8462;53.156;8.220;2023-02-04T01:33:25;9.67;;;1.87;;
7657;SDS011;8462;53.156;8.220;2023-02-04T01:35:52;8.63;;;1.57;;
7657;SDS011;8462;53.156;8.220;2023-02-04T01:38:20;8.77;;;1.50;;
7657;SDS011;8462;53.156;8.220;2023-02-04T01:40:47;3.47;;;1.50;;
7657;SDS011;8462;53.156;8.220;2023-02-04T01:43:14;3.33;;;1.50;;
7657;SDS011;8462;53.156;8.220;2023-02-04T01:45:42;4.20;;;1.20;;
7657;SDS011;8462;53.156;8.220;2023-02-04T01:48:09;5.77;;;1.60;;
7657;SDS011;8462;53.156;8.220;2023-02-04T01:50:44;7.30;;;2.20;;
7657;SDS011;8462;53.156;8.220;2023-02-04T01:53:11;3.53;;;1.43;;
7657;SDS011;8462;53.156;8.220;2023-02-04T01:55:39;5.07;;;1.30;;
7657;SDS011;8462;53.156;8.220;2023-02-04T01:58:08;5.27;;;1.33;;
7657;SDS011;8462;53.156;8.220;2023-02-04T02:00:36;6.47;;;1.33;;
7657;SDS011;8462;53.156;8.220;2023-02-04T02:03:04;7.43;;;1.33;;
7657;SDS011;8462;53.156;8.220;2023-02-04T02:05:35;1.93;;;1.03;;
7657;SDS011;8462;53.156;8.220;2023-02-04T02:08:04;3.57;;;1.17;;
7657;SDS011;8462;53.156;8.220;2023-02-04T02:10:32;7.87;;;2.13;;
7657;SDS011;8462;53.156;8.220;2023-02-04T02:13:03;5.63;;;1.53;;
7657;SDS011;8462;53.156;8.220;2023-02-04T02:15:31;3.77;;;1.40;;
7657;SDS011;8462;53.156;8.220;2023-02-04T02:17:58;2.20;;;1.20;;
7657;SDS011;8462;53.156;8.220;2023-02-04T02:20:25;6.43;;;1.60;;
7657;SDS011;8462;53.156;8.220;2023-02-04T02:22:58;5.83;;;1.30;;
7657;SDS011;8462;53.156;8.220;2023-02-04T02:25:31;5.10;;;1.20;;
7657;SDS011;8462;53.156;8.220;2023-02-04T02:27:58;2.47;;;0.90;;
7657;SDS011;8462;53.156;8.220;2023-02-04T02:30:27;6.27;;;1.30;;
7657;SDS011;8462;53.156;8.220;2023-02-04T02:32:54;5.17;;;1.60;;
7657;SDS011;8462;53.156;8.220;2023-02-04T02:35:22;6.17;;;2.63;;
7657;SDS011;8462;53.156;8.220;2023-02-04T02:37:49;5.27;;;1.87;;
7657;SDS011;8462;53.156;8.220;2023-02-04T02:40:16;2.67;;;1.63;;
7657;SDS011;8462;53.156;8.220;2023-02-04T02:42:46;14.43;;;1.50;;
7657;SDS011;8462;53.156;8.220;2023-02-04T02:45:16;5.27;;;1.73;;
7657;SDS011;8462;53.156;8.220;2023-02-04T02:47:48;5.83;;;1.40;;
7657;SDS011;8462;53.156;8.220;2023-02-04T02:50:16;7.23;;;1.40;;
7657;SDS011;8462;53.156;8.220;2023-02-04T02:52:45;6.93;;;1.20;;
7657;SDS011;8462;53.156;8.220;2023-02-04T02:55:13;7.93;;;1.67;;
7657;SDS011;8462;53.156;8.220;2023-02-04T02:57:43;6.80;;;1.60;;
7657;SDS011;8462;53.156;8.220;2023-02-04T03:00:16;3.00;;;1.20;;
7657;SDS011;8462;53.156;8.220;2023-02-04T03:02:47;4.47;;;1.50;;
7657;SDS011;8462;53.156;8.220;2023-02-04T03:05:19;6.87;;;1.57;;
7657;SDS011;8462;53.156;8.220;2023-02-04T03:07:46;5.27;;;2.00;;
7657;SDS011;8462;53.156;8.220;2023-02-04T03:10:13;8.67;;;2.57;;
7657;SDS011;8462;53.156;8.220;2023-02-04T03:12:41;9.87;;;2.20;;
7657;SDS011;8462;53.156;8.220;2023-02-04T03:15:08;6.67;;;2.20;;
7657;SDS011;8462;53.156;8.220;2023-02-04T03:17:37;7.07;;;1.70;;
7657;SDS011;8462;53.156;8.220;2023-02-04T03:20:04;9.97;;;2.20;;
7657;SDS011;8462;53.156;8.220;2023-02-04T03:22:32;5.20;;;1.30;;
7657;SDS011;8462;53.156;8.220;2023-02-04T03:25:00;6.90;;;2.03;;
7657;SDS011;8462;53.156;8.220;2023-02-04T03:27:28;5.87;;;2.60;;
7657;SDS011;8462;53.156;8.220;2023-02-04T03:29:55;4.03;;;1.67;;
7657;SDS011;8462;53.156;8.220;2023-02-04T03:32:22;5.90;;;1.50;;
7657;SDS011;8462;53.156;8.220;2023-02-04T03:34:51;4.90;;;1.60;;
7657;SDS011;8462;53.156;8.220;2023-02-04T03:37:18;8.90;;;1.93;;
7657;SDS011;8462;53.156;8.220;2023-02-04T03:39:45;8.20;;;1.67;;
7657;SDS011;8462;53.156;8.220;2023-02-04T03:42:12;3.80;;;1.33;;
7657;SDS011;8462;53.156;8.220;2023-02-04T03:44:39;3.93;;;1.50;;
7657;SDS011;8462;53.156;8.220;2023-02-04T03:47:06;4.87;;;1.80;;
7657;SDS011;8462;53.156;8.220;2023-02-04T03:49:32;4.53;;;1.77;;
7657;SDS011;8462;53.156;8.220;2023-02-04T03:52:01;4.93;;;1.47;;
7657;SDS011;8462;53.156;8.220;2023-02-04T03:54:28;6.97;;;1.60;;
7657;SDS011;8462;53.156;8.220;2023-02-04T03:56:55;4.73;;;1.53;;
7657;SDS011;8462;53.156;8.220;2023-02-04T03:59:22;3.20;;;1.00;;
7657;SDS011;8462;53.156;8.220;2023-02-04T04:01:49;4.57;;;1.33;;
7657;SDS011;8462;53.156;8.220;2023-02-04T04:04:16;2.07;;;1.27;;
7657;SDS011;8462;53.156;8.220;2023-02-04T04:06:43;4.47;;;1.27;;
7657;SDS011;8462;53.156;8.220;2023-02-04T04:09:12;5.70;;;1.13;;
7657;SDS011;8462;53.156;8.220;2023-02-04T04:11:38;8.30;;;2.00;;
7657;SDS011;8462;53.156;8.220;2023-02-04T04:14:05;5.93;;;1.77;;
7657;SDS011;8462;53.156;8.220;2023-02-04T04:16:32;3.17;;;1.07;;
7657;SDS011;8462;53.156;8.220;2023-02-04T04:18:59;5.80;;;1.70;;
7657;SDS011;8462;53.156;8.220;2023-02-04T04:21:26;3.47;;;1.27;;
7657;SDS011;8462;53.156;8.220;2023-02-04T04:23:53;3.20;;;1.33;;
7657;SDS011;8462;53.156;8.220;2023-02-04T04:26:21;4.27;;;1.53;;
7657;SDS011;8462;53.156;8.220;2023-02-04T04:28:48;11.60;;;1.47;;
7657;SDS011;8462;53.156;8.220;2023-02-04T04:31:15;3.50;;;1.33;;
7657;SDS011;8462;53.156;8.220;2023-02-04T04:33:41;6.60;;;1.40;;
7657;SDS011;8462;53.156;8.220;2023-02-04T04:36:08;2.97;;;1.33;;
7657;SDS011;8462;53.156;8.220;2023-02-04T04:38:35;1.53;;;1.20;;
7657;SDS011;8462;53.156;8.220;2023-02-04T04:41:02;2.00;;;1.30;;
7657;SDS011;8462;53.156;8.220;2023-02-04T04:43:30;3.40;;;1.50;;
7657;SDS011;8462;53.156;8.220;2023-02-04T04:45:57;3.50;;;1.40;;
7657;SDS011;8462;53.156;8.220;2023-02-04T04:48:24;5.00;;;1.20;;
7657;SDS011;8462;53.156;8.220;2023-02-04T04:50:51;2.57;;;1.50;;
7657;SDS011;8462;53.156;8.220;2023-02-04T04:53:18;4.27;;;1.60;;
7657;SDS011;8462;53.156;8.220;2023-02-04T04:55:45;3.63;;;1.70;;
7657;SDS011;8462;53.156;8.220;2023-02-04T04:58:11;5.10;;;1.43;;
7657;SDS011;8462;53.156;8.220;2023-02-04T05:00:40;4.20;;;1.50;;
7657;SDS011;8462;53.156;8.220;2023-02-04T05:03:06;3.17;;;1.40;;
7657;SDS011;8462;53.156;8.220;2023-02-04T05:05:33;2.97;;;1.53;;
7657;SDS011;8462;53.156;8.220;2023-02-04T05:08:04;5.13;;;1.40;;
7657;SDS011;8462;53.156;8.220;2023-02-04T05:10:31;4.30;;;1.50;;
7657;SDS011;8462;53.156;8.220;2023-02-04T05:12:58;6.37;;;1.40;;
7657;SDS011;8462;53.156;8.220;2023-02-04T05:15:25;3.77;;;1.60;;
7657;SDS011;8462;53.156;8.220;2023-02-04T05:17:53;5.53;;;1.50;;
7657;SDS011;8462;53.156;8.220;2023-02-04T05:20:20;3.40;;;1.40;;
7657;SDS011;8462;53.156;8.220;2023-02-04T05:22:47;4.93;;;1.17;;
7657;SDS011;8462;53.156;8.220;2023-02-04T05:25:14;2.53;;;1.50;;
7657;SDS011;8462;53.156;8.220;2023-02-04T05:27:41;2.10;;;1.50;;
7657;SDS011;8462;53.156;8.220;2023-02-04T05:30:09;4.40;;;2.10;;
7657;SDS011;8462;53.156;8.220;2023-02-04T05:32:37;3.47;;;1.37;;
7657;SDS011;8462;53.156;8.220;2023-02-04T05:35:06;7.53;;;1.90;;
7657;SDS011;8462;53.156;8.220;2023-02-04T05:37:33;6.13;;;1.87;;
7657;SDS011;8462;53.156;8.220;2023-02-04T05:40:00;3.87;;;1.63;;
7657;SDS011;8462;53.156;8.220;2023-02-04T05:42:27;3.10;;;1.30;;
7657;SDS011;8462;53.156;8.220;2023-02-04T05:44:54;7.07;;;1.90;;
7657;SDS011;8462;53.156;8.220;2023-02-04T05:47:21;3.03;;;1.70;;
7657;SDS011;8462;53.156;8.220;2023-02-04T05:49:48;4.87;;;1.50;;
7657;SDS011;8462;53.156;8.220;2023-02-04T05:52:16;3.20;;;1.80;;
7657;SDS011;8462;53.156;8.220;2023-02-04T05:54:43;5.87;;;1.67;;
7657;SDS011;8462;53.156;8.220;2023-02-04T05:57:10;3.03;;;1.70;;
7657;SDS011;8462;53.156;8.220;2023-02-04T05:59:36;2.90;;;1.50;;
7657;SDS011;8462;53.156;8.220;2023-02-04T06:02:03;5.87;;;1.50;;
7657;SDS011;8462;53.156;8.220;2023-02-04T06:04:31;4.40;;;2.07;;
7657;SDS011;8462;53.156;8.220;2023-02-04T06:06:58;5.13;;;1.87;;
7657;SDS011;8462;53.156;8.220;2023-02-04T06:09:27;4.30;;;2.00;;
7657;SDS011;8462;53.156;8.220;2023-02-04T06:11:54;4.00;;;2.33;;
7657;SDS011;8462;53.156;8.220;2023-02-04T06:14:21;3.30;;;1.67;;
7657;SDS011;8462;53.156;8.220;2023-02-04T06:16:48;4.50;;;2.13;;
7657;SDS011;8462;53.156;8.220;2023-02-04T06:19:17;3.03;;;1.70;;
7657;SDS011;8462;53.156;8.220;2023-02-04T06:21:44;6.87;;;2.80;;
7657;SDS011;8462;53.156;8.220;2023-02-04T06:24:11;4.60;;;2.43;;
7657;SDS011;8462;53.156;8.220;2023-02-04T06:26:40;3.30;;;1.83;;
7657;SDS011;8462;53.156;8.220;2023-02-04T06:29:07;5.50;;;1.97;;
7657;SDS011;8462;53.156;8.220;2023-02-04T06:31:34;7.27;;;2.07;;
7657;SDS011;8462;53.156;8.220;2023-02-04T06:34:02;5.83;;;2.20;;
7657;SDS011;8462;53.156;8.220;2023-02-04T06:36:29;3.73;;;1.90;;
7657;SDS011;8462;53.156;8.220;2023-02-04T06:38:56;2.97;;;2.10;;
7657;SDS011;8462;53.156;8.220;2023-02-04T06:41:23;8.40;;;3.43;;
7657;SDS011;8462;53.156;8.220;2023-02-04T06:43:51;5.53;;;2.20;;
7657;SDS011;8462;53.156;8.220;2023-02-04T06:46:18;5.57;;;2.40;;
7657;SDS011;8462;53.156;8.220;2023-02-04T06:48:45;3.30;;;2.33;;
7657;SDS011;8462;53.156;8.220;2023-02-04T06:51:12;7.57;;;2.70;;
7657;SDS011;8462;53.156;8.220;2023-02-04T06:53:38;4.13;;;2.20;;
7657;SDS011;8462;53.156;8.220;2023-02-04T06:56:08;3.47;;;2.40;;
7657;SDS011;8462;53.156;8.220;2023-02-04T06:58:35;7.87;;;2.60;;
7657;SDS011;8462;53.156;8.220;2023-02-04T07:01:03;4.77;;;2.40;;
7657;SDS011;8462;53.156;8.220;2023-02-04T07:03:31;7.50;;;3.00;;
7657;SDS011;8462;53.156;8.220;2023-02-04T07:05:58;7.60;;;2.00;;
7657;SDS011;8462;53.156;8.220;2023-02-04T07:08:24;3.40;;;2.10;;
7657;SDS011;8462;53.156;8.220;2023-02-04T07:10:51;3.43;;;2.03;;
7657;SDS011;8462;53.156;8.220;2023-02-04T07:13:18;5.77;;;3.17;;
7657;SDS011;8462;53.156;8.220;2023-02-04T07:15:45;5.90;;;3.10;;
7657;SDS011;8462;53.156;8.220;2023-02-04T07:18:13;6.23;;;2.50;;
7657;SDS011;8462;53.156;8.220;2023-02-04T07:20:40;4.77;;;2.63;;
7657;SDS011;8462;53.156;8.220;2023-02-04T07:23:07;3.17;;;2.40;;
7657;SDS011;8462;53.156;8.220;2023-02-04T07:25:34;7.27;;;3.07;;
7657;SDS011;8462;53.156;8.220;2023-02-04T07:28:03;6.27;;;2.83;;
7657;SDS011;8462;53.156;8.220;2023-02-04T07:30:30;4.50;;;2.53;;
7657;SDS011;8462;53.156;8.220;2023-02-04T07:32:57;3.73;;;2.40;;
7657;SDS011;8462;53.156;8.220;2023-02-04T07:35:25;6.97;;;2.87;;
7657;SDS011;8462;53.156;8.220;2023-02-04T07:37:52;6.53;;;2.50;;
7657;SDS011;8462;53.156;8.220;2023-02-04T07:40:19;7.17;;;2.70;;
7657;SDS011;8462;53.156;8.220;2023-02-04T07:42:46;7.97;;;2.77;;
7657;SDS011;8462;53.156;8.220;2023-02-04T07:45:16;6.37;;;2.57;;
7657;SDS011;8462;53.156;8.220;2023-02-04T07:47:43;4.83;;;2.87;;
7657;SDS011;8462;53.156;8.220;2023-02-04T07:50:10;6.50;;;3.33;;
7657;SDS011;8462;53.156;8.220;2023-02-04T07:52:38;4.10;;;2.80;;
7657;SDS011;8462;53.156;8.220;2023-02-04T07:55:06;5.43;;;3.97;;
7657;SDS011;8462;53.156;8.220;2023-02-04T07:57:33;6.00;;;3.57;;
7657;SDS011;8462;53.156;8.220;2023-02-04T08:00:01;6.97;;;3.83;;
7657;SDS011;8462;53.156;8.220;2023-02-04T08:02:39;7.27;;;3.37;;
7657;SDS011;8462;53.156;8.220;2023-02-04T08:05:07;6.23;;;3.90;;
7657;SDS011;8462;53.156;8.220;2023-02-04T08:07:35;6.40;;;3.67;;
7657;SDS011;8462;53.156;8.220;2023-02-04T08:10:03;7.47;;;3.67;;
7657;SDS011;8462;53.156;8.220;2023-02-04T08:12:31;5.10;;;3.47;;
7657;SDS011;8462;53.156;8.220;2023-02-04T08:14:58;4.43;;;3.67;;
7657;SDS011;8462;53.156;8.220;2023-02-04T08:17:26;8.43;;;4.40;;
7657;SDS011;8462;53.156;8.220;2023-02-04T08:19:53;9.53;;;3.73;;
7657;SDS011;8462;53.156;8.220;2023-02-04T08:22:20;5.60;;;3.67;;
7657;SDS011;8462;53.156;8.220;2023-02-04T08:24:47;7.30;;;3.47;;
7657;SDS011;8462;53.156;8.220;2023-02-04T08:27:15;6.53;;;3.37;;
7657;SDS011;8462;53.156;8.220;2023-02-04T08:29:42;8.80;;;3.20;;
7657;SDS011;8462;53.156;8.220;2023-02-04T08:32:09;7.13;;;3.17;;
7657;SDS011;8462;53.156;8.220;2023-02-04T08:34:37;4.40;;;3.10;;
7657;SDS011;8462;53.156;8.220;2023-02-04T08:37:04;4.87;;;3.23;;
7657;SDS011;8462;53.156;8.220;2023-02-04T08:39:33;5.17;;;3.00;;
7657;SDS011;8462;53.156;8.220;2023-02-04T08:42:00;6.40;;;3.70;;
7657;SDS011;8462;53.156;8.220;2023-02-04T08:44:29;2.70;;;2.50;;
7657;SDS011;8462;53.156;8.220;2023-02-04T08:46:56;7.10;;;3.83;;
7657;SDS011;8462;53.156;8.220;2023-02-04T08:49:23;4.50;;;2.63;;
7657;SDS011;8462;53.156;8.220;2023-02-04T08:51:50;4.63;;;2.63;;
7657;SDS011;8462;53.156;8.220;2023-02-04T08:54:17;8.00;;;3.70;;
7657;SDS011;8462;53.156;8.220;2023-02-04T08:56:44;3.83;;;3.10;;
7657;SDS011;8462;53.156;8.220;2023-02-04T08:59:11;3.47;;;2.57;;
7657;SDS011;8462;53.156;8.220;2023-02-04T09:01:39;4.50;;;2.83;;
7657;SDS011;8462;53.156;8.220;2023-02-04T09:04:06;7.70;;;3.20;;
7657;SDS011;8462;53.156;8.220;2023-02-04T09:06:33;7.17;;;3.53;;
7657;SDS011;8462;53.156;8.220;2023-02-04T09:09:00;4.70;;;2.43;;
7657;SDS011;8462;53.156;8.220;2023-02-04T09:11:27;4.97;;;3.03;;
7657;SDS011;8462;53.156;8.220;2023-02-04T09:13:54;10.07;;;3.63;;
7657;SDS011;8462;53.156;8.220;2023-02-04T09:16:21;6.13;;;3.70;;
7657;SDS011;8462;53.156;8.220;2023-02-04T09:18:49;4.43;;;2.40;;
7657;SDS011;8462;53.156;8.220;2023-02-04T09:21:16;3.93;;;2.53;;
7657;SDS011;8462;53.156;8.220;2023-02-04T09:23:43;4.07;;;3.07;;
7657;SDS011;8462;53.156;8.220;2023-02-04T09:26:11;6.20;;;3.50;;
7657;SDS011;8462;53.156;8.220;2023-02-04T09:28:38;3.40;;;2.97;;
7657;SDS011;8462;53.156;8.220;2023-02-04T09:31:04;6.33;;;3.27;;
7657;SDS011;8462;53.156;8.220;2023-02-04T09:33:32;6.73;;;3.00;;
7657;SDS011;8462;53.156;8.220;2023-02-04T09:36:01;4.63;;;3.30;;
7657;SDS011;8462;53.156;8.220;2023-02-04T09:38:28;5.97;;;2.83;;
7657;SDS011;8462;53.156;8.220;2023-02-04T09:41:01;4.07;;;2.77;;
7657;SDS011;8462;53.156;8.220;2023-02-04T09:43:33;6.57;;;3.60;;
7657;SDS011;8462;53.156;8.220;2023-02-04T09:46:01;6.33;;;4.53;;
7657;SDS011;8462;53.156;8.220;2023-02-04T09:48:29;5.73;;;2.80;;
7657;SDS011;8462;53.156;8.220;2023-02-04T09:50:59;4.50;;;2.80;;
7657;SDS011;8462;53.156;8.220;2023-02-04T09:53:31;4.37;;;3.10;;
7657;SDS011;8462;53.156;8.220;2023-02-04T09:56:01;6.67;;;2.87;;
7657;SDS011;8462;53.156;8.220;2023-02-04T09:58:29;5.20;;;3.20;;
7657;SDS011;8462;53.156;8.220;2023-02-04T10:01:00;3.97;;;2.83;;
7657;SDS011;8462;53.156;8.220;2023-02-04T10:03:31;3.43;;;2.70;;
7657;SDS011;8462;53.156;8.220;2023-02-04T10:05:59;4.33;;;2.93;;
7657;SDS011;8462;53.156;8.220;2023-02-04T10:08:29;4.47;;;3.00;;
7657;SDS011;8462;53.156;8.220;2023-02-04T10:10:58;3.73;;;2.40;;
7657;SDS011;8462;53.156;8.220;2023-02-04T10:13:27;4.93;;;2.60;;
7657;SDS011;8462;53.156;8.220;2023-02-04T10:15:57;3.30;;;2.43;;
7657;SDS011;8462;53.156;8.220;2023-02-04T10:18:27;5.97;;;3.10;;
7657;SDS011;8462;53.156;8.220;2023-02-04T10:20:56;3.37;;;2.70;;
7657;SDS011;8462;53.156;8.220;2023-02-04T10:23:39;4.97;;;3.07;;
7657;SDS011;8462;53.156;8.220;2023-02-04T10:26:08;3.47;;;2.63;;
7657;SDS011;8462;53.156;8.220;2023-02-04T10:28:36;4.93;;;3.13;;
7657;SDS011;8462;53.156;8.220;2023-02-04T10:31:10;3.03;;;2.53;;
7657;SDS011;8462;53.156;8.220;2023-02-04T10:34:01;3.10;;;2.47;;
7657;SDS011;8462;53.156;8.220;2023-02-04T10:36:29;2.13;;;1.80;;
7657;SDS011;8462;53.156;8.220;2023-02-04T10:39:01;5.97;;;2.70;;
7657;SDS011;8462;53.156;8.220;2023-02-04T10:41:29;12.93;;;3.10;;
7657;SDS011;8462;53.156;8.220;2023-02-04T10:44:04;6.13;;;2.20;;
7657;SDS011;8462;53.156;8.220;2023-02-04T10:46:32;5.60;;;2.87;;
7657;SDS011;8462;53.156;8.220;2023-02-04T10:48:59;9.17;;;2.70;;
7657;SDS011;8462;53.156;8.220;2023-02-04T10:51:28;4.60;;;2.00;;
7657;SDS011;8462;53.156;8.220;2023-02-04T10:53:55;2.43;;;2.03;;
7657;SDS011;8462;53.156;8.220;2023-02-04T10:56:41;3.23;;;2.23;;
7657;SDS011;8462;53.156;8.220;2023-02-04T10:59:11;3.37;;;2.30;;
7657;SDS011;8462;53.156;8.220;2023-02-04T11:01:47;3.27;;;2.13;;
7657;SDS011;8462;53.156;8.220;2023-02-04T11:04:14;3.37;;;1.97;;
7657;SDS011;8462;53.156;8.220;2023-02-04T11:06:41;3.47;;;1.70;;
7657;SDS011;8462;53.156;8.220;2023-02-04T11:09:10;3.30;;;2.17;;
7657;SDS011;8462;53.156;8.220;2023-02-04T11:11:45;4.07;;;2.40;;
7657;SDS011;8462;53.156;8.220;2023-02-04T11:14:23;3.47;;;1.80;;
7657;SDS011;8462;53.156;8.220;2023-02-04T11:16:52;1.97;;;1.73;;
7657;SDS011;8462;53.156;8.220;2023-02-04T11:19:32;5.83;;;1.83;;
7657;SDS011;8462;53.156;8.220;2023-02-04T11:22:18;3.90;;;2.50;;
7657;SDS011;8462;53.156;8.220;2023-02-04T11:24:49;5.00;;;2.70;;
7657;SDS011;8462;53.156;8.220;2023-02-04T11:27:19;3.23;;;2.20;;
7657;SDS011;8462;53.156;8.220;2023-02-04T11:29:48;2.40;;;2.00;;
7657;SDS011;8462;53.156;8.220;2023-02-04T11:32:29;2.93;;;2.43;;
7657;SDS011;8462;53.156;8.220;2023-02-04T11:35:19;5.00;;;2.27;;
7657;SDS011;8462;53.156;8.220;2023-02-04T11:37:51;3.90;;;2.53;;
7657;SDS011;8462;53.156;8.220;2023-02-04T11:40:25;3.07;;;2.23;;
7657;SDS011;8462;53.156;8.220;2023-02-04T11:43:03;2.23;;;1.93;;
7657;SDS011;8462;53.156;8.220;2023-02-04T11:45:37;3.00;;;2.23;;
7657;SDS011;8462;53.156;8.220;2023-02-04T11:48:09;2.50;;;2.30;;
7657;SDS011;8462;53.156;8.220;2023-02-04T11:50:38;6.67;;;2.03;;
7657;SDS011;8462;53.156;8.220;2023-02-04T11:53:07;3.53;;;2.00;;
7657;SDS011;8462;53.156;8.220;2023-02-04T11:55:43;2.70;;;2.03;;
7657;SDS011;8462;53.156;8.220;2023-02-04T11:58:14;2.00;;;1.80;;
7657;SDS011;8462;53.156;8.220;2023-02-04T12:00:43;2.50;;;2.20;;
7657;SDS011;8462;53.156;8.220;2023-02-04T12:03:21;2.13;;;1.90;;
7657;SDS011;8462;53.156;8.220;2023-02-04T12:05:50;2.50;;;1.90;;
7657;SDS011;8462;53.156;8.220;2023-02-04T12:08:24;2.30;;;2.00;;
7657;SDS011;8462;53.156;8.220;2023-02-04T12:10:58;3.90;;;2.60;;
7657;SDS011;8462;53.156;8.220;2023-02-04T12:13:33;4.97;;;2.20;;
7657;SDS011;8462;53.156;8.220;2023-02-04T12:16:11;3.10;;;2.00;;
7657;SDS011;8462;53.156;8.220;2023-02-04T12:18:38;5.73;;;2.10;;
7657;SDS011;8462;53.156;8.220;2023-02-04T12:21:04;2.37;;;2.10;;
7657;SDS011;8462;53.156;8.220;2023-02-04T12:23:31;1.93;;;1.70;;
7657;SDS011;8462;53.156;8.220;2023-02-04T12:25:59;2.43;;;1.90;;
7657;SDS011;8462;53.156;8.220;2023-02-04T12:28:26;2.40;;;2.10;;
7657;SDS011;8462;53.156;8.220;2023-02-04T12:30:54;2.43;;;1.77;;
7657;SDS011;8462;53.156;8.220;2023-02-04T12:33:22;2.50;;;1.80;;
7657;SDS011;8462;53.156;8.220;2023-02-04T12:35:49;3.60;;;1.90;;
7657;SDS011;8462;53.156;8.220;2023-02-04T12:38:16;3.63;;;2.30;;
7657;SDS011;8462;53.156;8.220;2023-02-04T12:40:43;2.90;;;2.03;;
7657;SDS011;8462;53.156;8.220;2023-02-04T12:43:10;4.73;;;1.80;;
7657;SDS011;8462;53.156;8.220;2023-02-04T12:45:37;3.13;;;1.63;;
7657;SDS011;8462;53.156;8.220;2023-02-04T12:48:11;3.43;;;1.90;;
7657;SDS011;8462;53.156;8.220;2023-02-04T12:50:39;2.13;;;1.90;;
7657;SDS011;8462;53.156;8.220;2023-02-04T12:53:08;2.37;;;2.17;;
7657;SDS011;8462;53.156;8.220;2023-02-04T12:55:36;3.13;;;2.33;;
7657;SDS011;8462;53.156;8.220;2023-02-04T12:58:03;3.97;;;2.80;;
7657;SDS011;8462;53.156;8.220;2023-02-04T13:00:30;2.83;;;2.50;;
7657;SDS011;8462;53.156;8.220;2023-02-04T13:02:57;3.33;;;2.13;;
7657;SDS011;8462;53.156;8.220;2023-02-04T13:05:27;3.67;;;1.70;;
7657;SDS011;8462;53.156;8.220;2023-02-04T13:07:54;4.13;;;2.00;;
7657;SDS011;8462;53.156;8.220;2023-02-04T13:10:21;2.67;;;1.90;;
7657;SDS011;8462;53.156;8.220;2023-02-04T13:12:49;2.87;;;2.07;;
7657;SDS011;8462;53.156;8.220;2023-02-04T13:15:16;2.30;;;1.90;;
7657;SDS011;8462;53.156;8.220;2023-02-04T13:17:44;2.93;;;1.83;;
7657;SDS011;8462;53.156;8.220;2023-02-04T13:20:12;2.83;;;1.73;;
7657;SDS011;8462;53.156;8.220;2023-02-04T13:22:40;4.07;;;3.07;;
7657;SDS011;8462;53.156;8.220;2023-02-04T13:25:07;5.03;;;2.00;;
7657;SDS011;8462;53.156;8.220;2023-02-04T13:27:35;4.00;;;2.17;;
7657;SDS011;8462;53.156;8.220;2023-02-04T13:30:03;4.40;;;2.17;;
7657;SDS011;8462;53.156;8.220;2023-02-04T13:32:30;2.57;;;1.90;;
7657;SDS011;8462;53.156;8.220;2023-02-04T13:34:57;2.03;;;1.60;;
7657;SDS011;8462;53.156;8.220;2023-02-04T13:37:24;2.63;;;1.90;;
7657;SDS011;8462;53.156;8.220;2023-02-04T13:39:54;3.20;;;2.00;;
7657;SDS011;8462;53.156;8.220;2023-02-04T13:42:22;2.53;;;1.93;;
7657;SDS011;8462;53.156;8.220;2023-02-04T13:44:48;5.43;;;3.93;;
7657;SDS011;8462;53.156;8.220;2023-02-04T13:47:15;2.40;;;2.20;;
7657;SDS011;8462;53.156;8.220;2023-02-04T13:49:42;3.20;;;2.00;;
7657;SDS011;8462;53.156;8.220;2023-02-04T13:52:09;2.70;;;2.30;;
7657;SDS011;8462;53.156;8.220;2023-02-04T13:54:36;3.60;;;1.87;;
7657;SDS011;8462;53.156;8.220;2023-02-04T13:57:04;3.60;;;2.03;;
7657;SDS011;8462;53.156;8.220;2023-02-04T13:59:31;2.93;;;2.33;;
7657;SDS011;8462;53.156;8.220;2023-02-04T14:01:58;4.27;;;1.90;;
7657;SDS011;8462;53.156;8.220;2023-02-04T14:04:25;1.90;;;1.77;;
7657;SDS011;8462;53.156;8.220;2023-02-04T14:06:52;3.17;;;1.90;;
7657;SDS011;8462;53.156;8.220;2023-02-04T14:09:20;2.43;;;1.87;;
7657;SDS011;8462;53.156;8.220;2023-02-04T14:11:49;3.53;;;2.10;;
7657;SDS011;8462;53.156;8.220;2023-02-04T14:14:17;5.03;;;1.93;;
7657;SDS011;8462;53.156;8.220;2023-02-04T14:16:45;3.07;;;1.53;;
7657;SDS011;8462;53.156;8.220;2023-02-04T14:19:12;4.30;;;2.53;;
7657;SDS011;8462;53.156;8.220;2023-02-04T14:21:39;3.60;;;2.03;;
7657;SDS011;8462;53.156;8.220;2023-02-04T14:24:06;6.03;;;4.10;;
7657;SDS011;8462;53.156;8.220;2023-02-04T14:26:33;3.23;;;2.37;;
7657;SDS011;8462;53.156;8.220;2023-02-04T14:29:02;3.03;;;2.17;;
7657;SDS011;8462;53.156;8.220;2023-02-04T14:31:32;3.80;;;2.20;;
7657;SDS011;8462;53.156;8.220;2023-02-04T14:34:00;2.30;;;1.90;;
7657;SDS011;8462;53.156;8.220;2023-02-04T14:36:27;2.67;;;1.80;;
7657;SDS011;8462;53.156;8.220;2023-02-04T14:38:54;3.07;;;1.90;;
7657;SDS011;8462;53.156;8.220;2023-02-04T14:41:21;2.23;;;1.87;;
7657;SDS011;8462;53.156;8.220;2023-02-04T14:43:50;3.00;;;1.47;;
7657;SDS011;8462;53.156;8.220;2023-02-04T14:46:17;3.23;;;1.93;;
7657;SDS011;8462;53.156;8.220;2023-02-04T14:48:45;3.57;;;1.93;;
7657;SDS011;8462;53.156;8.220;2023-02-04T14:51:12;2.33;;;1.70;;
7657;SDS011;8462;53.156;8.220;2023-02-04T14:53:39;2.47;;;1.70;;
7657;SDS011;8462;53.156;8.220;2023-02-04T14:56:06;3.30;;;2.30;;
7657;SDS011;8462;53.156;8.220;2023-02-04T14:58:33;4.47;;;2.23;;
7657;SDS011;8462;53.156;8.220;2023-02-04T15:01:00;3.47;;;2.43;;
7657;SDS011;8462;53.156;8.220;2023-02-04T15:03:27;2.37;;;1.97;;
7657;SDS011;8462;53.156;8.220;2023-02-04T15:05:55;2.20;;;2.00;;
7657;SDS011;8462;53.156;8.220;2023-02-04T15:08:22;2.73;;;1.90;;
7657;SDS011;8462;53.156;8.220;2023-02-04T15:10:49;2.60;;;1.87;;
7657;SDS011;8462;53.156;8.220;2023-02-04T15:13:15;3.70;;;2.13;;
7657;SDS011;8462;53.156;8.220;2023-02-04T15:15:42;5.23;;;2.53;;
7657;SDS011;8462;53.156;8.220;2023-02-04T15:18:09;3.27;;;1.90;;
7657;SDS011;8462;53.156;8.220;2023-02-04T15:20:36;4.57;;;1.90;;